Algoma Spirit — CFN4309 — position and weather

sailwx.info

Track history (hours):
 
Tides and Currents Weather Stations Pressure Air Temp Water Temp Dewpoint Dewpoint Depression Visibility Wind Speed Wind Dir Waves Ship Positions

Algoma Spirit

Last reported at 2017-Sep-25 00:22 UTC. Time now 2017-Sep-25 00:34 UTC.
Position N 46°42' W 092°01'.

Length 222 m; draft 8.1 m.

Type: Ship. MMSI: 316018616.

Date/timePositionNaut miles runAvg speedWind from/ knotsBaromVisibWave heightAir tempDewpointWater temp
2017-Sep-25 00:22N 46°42' W 092°01'0 0.0
2017-Sep-24 23:52N 46°42' W 092°01'0 0.0
2017-Sep-24 23:25N 46°42' W 092°01'0 0.0
2017-Sep-24 22:55N 46°42' W 092°01'0 0.0
2017-Sep-24 22:25N 46°42' W 092°01'0 0.1
2017-Sep-24 21:25N 46°42' W 092°01'2 3.6
2017-Sep-24 21:00N 46°43' W 091°60'3 5.1
2017-Sep-24 20:30N 46°46' W 091°59'1 1.7
2017-Sep-24 19:50N 46°46' W 092°00'0 0.1
2017-Sep-24 19:20N 46°46' W 092°01'0 0.0
2017-Sep-24 18:50N 46°46' W 092°01'0 0.0
2017-Sep-24 18:20N 46°46' W 092°01'0 0.0
2017-Sep-24 17:53N 46°46' W 092°01'0 0.0
2017-Sep-24 17:23N 46°46' W 092°01'0 0.0
2017-Sep-24 16:53N 46°46' W 092°01'0 0.0
2017-Sep-24 16:20N 46°46' W 092°01'0 0.0
2017-Sep-24 15:53N 46°46' W 092°01'0 0.0
2017-Sep-24 15:23N 46°46' W 092°01'0 0.0
2017-Sep-24 14:53N 46°46' W 092°01'0 0.0
2017-Sep-24 14:26N 46°46' W 092°01'0 0.0
2017-Sep-24 13:56N 46°46' W 092°01'0 0.0
2017-Sep-24 13:26N 46°46' W 092°01'0 0.0
2017-Sep-24 12:56N 46°46' W 092°01'0 0.0
2017-Sep-24 12:29N 46°46' W 092°01'2 3.3
2017-Sep-24 12:00N 46°48' W 092°00'2343.0 060 / 71012.0 0.1 18.0
2017-Sep-24 11:59N 46°46' W 092°01'0 0.0
2017-Sep-24 11:29N 46°46' W 092°01'0 0.0
2017-Sep-24 10:59N 46°46' W 092°01'0 0.0
2017-Sep-24 10:29N 46°46' W 092°01'0 0.0
2017-Sep-24 09:59N 46°46' W 092°01'0 0.0
2017-Sep-24 09:29N 46°46' W 092°01'0 0.1
2017-Sep-24 08:59N 46°46' W 092°01'0 0.1
2017-Sep-24 08:29N 46°46' W 092°00'2 3.3
2017-Sep-24 08:00N 46°48' W 092°00'2313.7 030 / 101012.010.8 20.0
2017-Sep-24 07:59N 46°46' W 092°00'0 0.0
2017-Sep-24 07:29N 46°46' W 092°00'0 0.1
2017-Sep-24 06:59N 46°46' W 092°00'0 0.0
2017-Sep-24 06:29N 46°46' W 092°00'0 0.1
2017-Sep-24 05:50N 46°46' W 092°01'0 0.0
2017-Sep-24 05:20N 46°46' W 092°01'0 0.0
2017-Sep-24 04:50N 46°46' W 092°01'0 0.0
2017-Sep-24 04:20N 46°46' W 092°01'0 0.1
2017-Sep-24 03:53N 46°46' W 092°00'0 0.1
2017-Sep-24 03:23N 46°46' W 092°00'0 0.0
2017-Sep-24 02:50N 46°46' W 092°00'0 0.1
2017-Sep-24 02:23N 46°46' W 092°00'0 0.3
2017-Sep-24 01:50N 46°46' W 092°00'0 0.2
2017-Sep-24 01:26N 46°46' W 092°00'0 0.1
2017-Sep-24 00:56N 46°46' W 092°00'0 0.0
2017-Sep-24 00:26N 46°46' W 092°00'0 0.1
2017-Sep-23 23:56N 46°46' W 092°00'0 0.3
2017-Sep-23 23:26N 46°46' W 092°00'2 3.7
2017-Sep-23 23:00N 46°48' W 092°00'230.4 350 / 71011.010.8 -3.3
2017-Sep-23 22:56N 46°46' W 092°00'0 0.2
2017-Sep-23 22:29N 46°46' W 092°00'0 0.3
2017-Sep-23 21:59N 46°47' W 092°00'0 0.0
2017-Sep-23 21:29N 46°47' W 092°00'0 0.1
2017-Sep-23 20:59N 46°47' W 092°00'0 0.3
2017-Sep-23 20:29N 46°47' W 092°00'2 3.1
2017-Sep-23 20:00N 46°48' W 092°00'2 6.3 220 / 31011.010.8 31.0
2017-Sep-23 19:44N 46°46' W 092°01'2 0.1
2017-Sep-23 08:00N 46°48' W 092°00'0 0.0 010 / 101006.010.8 18.0
2017-Sep-23 03:00N 46°48' W 092°00'0 0.0 050 / 151006.010.8 18.0
2017-Sep-22 23:00N 46°48' W 092°00'0 0.0 030 / 101009.010.8 22.0
2017-Sep-22 21:00N 46°48' W 092°00'14 1.1 060 / 121009.010.8 24.0
2017-Sep-22 09:00N 46°54' W 091°42'2121.3 030 / 161010.010.8 16.0
2017-Sep-22 08:00N 47°00' W 091°12'6412.8 030 / 121010.010.8 16.0
2017-Sep-22 03:00N 47°18' W 089°42'4514.9 120 / 181012.010.8 16.0
2017-Sep-22 00:00N 47°18' W 088°36'3812.8 080 / 161014.010.8 16.0
2017-Sep-21 21:00N 47°30' W 087°42'14412.7 030 / 91015.010.8 14.0
2017-Sep-21 09:39N 46°27' W 084°32'13 3.9
2017-Sep-21 06:18N 46°23' W 084°14'310.1
2017-Sep-21 06:00N 46°21' W 084°11'6 7.1
2017-Sep-21 05:07N 46°15' W 084°06'3 7.2
2017-Sep-21 04:44N 46°13' W 084°07'2 9.5
2017-Sep-21 04:30N 46°11' W 084°06'810.9
2017-Sep-21 03:43N 46°04' W 083°59'412.5
2017-Sep-21 03:24N 46°02' W 083°54'411.3
2017-Sep-21 03:00N 45°58' W 083°54'713.1
2017-Sep-21 02:30N 45°52' W 083°49'713.6
2017-Sep-21 02:00N 45°46' W 083°43'713.3
2017-Sep-21 01:31N 45°41' W 083°38'713.4
2017-Sep-21 01:00N 45°35' W 083°33'713.6
2017-Sep-21 00:30N 45°30' W 083°27'2113.6
2017-Sep-20 23:00N 45°12' W 083°12'4515.1 140 / 141013.0 0.0 19.0
2017-Sep-20 20:00N 44°30' W 082°48'10312.9 140 / 81013.0 0.0 21.0
2017-Sep-20 12:00N 42°48' W 082°30'21 5.3 120 / 11013.0 19.0
2017-Sep-20 08:00N 42°36' W 082°54'44 5.5 080 / 41013.010.8 21.0
2017-Sep-20 00:00N 41°54' W 082°36'5914.8 080 / 111013.010.8 22.0
2017-Sep-19 20:00N 42°06' W 081°18'6711.1 020 / 81014.010.8 22.0
2017-Sep-19 14:00N 42°30' W 079°54'49 3.0 180 / 81015.010.8 23.0
2017-Sep-18 22:00N 43°18' W 079°42'49 1.4 050 / 81015.010.8 27.0
2017-Sep-17 12:00N 42°30' W 079°54'5213.0 090 / 61019.010.8 19.0
2017-Sep-17 08:00N 42°12' W 081°00'9411.8 070 / 61019.010.8 22.0
2017-Sep-17 00:00N 42°00' W 083°06'18 6.0 120 / 131020.010.8 26.0
2017-Sep-16 21:00N 42°18' W 083°06'10111.2 170 / 101020.010.8 26.0
2017-Sep-16 12:00N 43°54' W 082°24'5714.2 170 / 131007.010.8 19.0
2017-Sep-16 08:00N 44°48' W 082°48'3 3.5 170 / 121007.010.8 19.0
2017-Sep-16 07:06N 44°50' W 082°51'113.1
2017-Sep-16 07:00N 44°51' W 082°52'3213.9
2017-Sep-16 07:00N 44°54' W 082°54'6 8.9 180 / 141017.010.8 19.0
2017-Sep-16 06:18N 45°00' W 082°56'513.1
2017-Sep-16 05:57N 45°04' W 082°58'713.1
2017-Sep-16 05:24N 45°11' W 083°01'713.4
2017-Sep-16 04:53N 45°18' W 083°05'513.1
2017-Sep-16 04:29N 45°22' W 083°08'613.4
2017-Sep-16 04:00N 45°27' W 083°14'713.4
2017-Sep-16 03:30N 45°32' W 083°21'713.2
2017-Sep-16 03:00N 45°37' W 083°27'713.1
2017-Sep-16 02:30N 45°42' W 083°33'613.0
2017-Sep-16 02:00N 45°46' W 083°40'713.0
2017-Sep-16 01:29N 45°51' W 083°46'712.7
2017-Sep-16 00:57N 45°56' W 083°53'611.4
2017-Sep-16 00:23N 46°02' W 083°56'910.7
2017-Sep-15 23:32N 46°10' W 084°04'211.3
2017-Sep-15 23:23N 46°11' W 084°06'4 9.5
2017-Sep-15 22:56N 46°13' W 084°10'102 9.3
2017-Sep-15 12:00N 47°12' W 086°12'5413.6 210 / 131008.0 5.4 16.0
2017-Sep-15 08:00N 47°36' W 087°24'2110.6 140 / 41007.010.8 18.0
2017-Sep-15 06:00N 47°30' W 087°54'   060 / 61007.010.8 17.0
Track history (hours):
 
Tides and Currents Weather Stations Pressure Air Temp Water Temp Dewpoint Dewpoint Depression Visibility Wind Speed Wind Dir Waves Ship Positions

Algoma Spirit

Last reported at 2017-Sep-25 00:22 UTC. Time now 2017-Sep-25 00:34 UTC.
Position N 46°42' W 092°01'.

Length 222 m; draft 8.1 m.

Type: Ship. MMSI: 316018616.

Date/timePositionNaut miles runAvg speedWind from/ knotsBaromVisibWave heightAir tempDewpointWater temp
2017-Sep-25 00:22N 46°42' W 092°01'0 0.0
2017-Sep-24 23:52N 46°42' W 092°01'0 0.0
2017-Sep-24 23:25N 46°42' W 092°01'0 0.0
2017-Sep-24 22:55N 46°42' W 092°01'0 0.0
2017-Sep-24 22:25N 46°42' W 092°01'0 0.1
2017-Sep-24 21:25N 46°42' W 092°01'2 3.6
2017-Sep-24 21:00N 46°43' W 091°60'3 5.1
2017-Sep-24 20:30N 46°46' W 091°59'1 1.7
2017-Sep-24 19:50N 46°46' W 092°00'0 0.1
2017-Sep-24 19:20N 46°46' W 092°01'0 0.0
2017-Sep-24 18:50N 46°46' W 092°01'0 0.0
2017-Sep-24 18:20N 46°46' W 092°01'0 0.0
2017-Sep-24 17:53N 46°46' W 092°01'0 0.0
2017-Sep-24 17:23N 46°46' W 092°01'0 0.0
2017-Sep-24 16:53N 46°46' W 092°01'0 0.0
2017-Sep-24 16:20N 46°46' W 092°01'0 0.0
2017-Sep-24 15:53N 46°46' W 092°01'0 0.0
2017-Sep-24 15:23N 46°46' W 092°01'0 0.0
2017-Sep-24 14:53N 46°46' W 092°01'0 0.0
2017-Sep-24 14:26N 46°46' W 092°01'0 0.0
2017-Sep-24 13:56N 46°46' W 092°01'0 0.0
2017-Sep-24 13:26N 46°46' W 092°01'0 0.0
2017-Sep-24 12:56N 46°46' W 092°01'0 0.0
2017-Sep-24 12:29N 46°46' W 092°01'2 3.3
2017-Sep-24 12:00N 46°48' W 092°00'2343.0 060 / 71012.0 0.1 18.0
2017-Sep-24 11:59N 46°46' W 092°01'0 0.0
2017-Sep-24 11:29N 46°46' W 092°01'0 0.0
2017-Sep-24 10:59N 46°46' W 092°01'0 0.0
2017-Sep-24 10:29N 46°46' W 092°01'0 0.0
2017-Sep-24 09:59N 46°46' W 092°01'0 0.0
2017-Sep-24 09:29N 46°46' W 092°01'0 0.1
2017-Sep-24 08:59N 46°46' W 092°01'0 0.1
2017-Sep-24 08:29N 46°46' W 092°00'2 3.3
2017-Sep-24 08:00N 46°48' W 092°00'2313.7 030 / 101012.010.8 20.0
2017-Sep-24 07:59N 46°46' W 092°00'0 0.0
2017-Sep-24 07:29N 46°46' W 092°00'0 0.1
2017-Sep-24 06:59N 46°46' W 092°00'0 0.0
2017-Sep-24 06:29N 46°46' W 092°00'0 0.1
2017-Sep-24 05:50N 46°46' W 092°01'0 0.0
2017-Sep-24 05:20N 46°46' W 092°01'0 0.0
2017-Sep-24 04:50N 46°46' W 092°01'0 0.0
2017-Sep-24 04:20N 46°46' W 092°01'0 0.1
2017-Sep-24 03:53N 46°46' W 092°00'0 0.1
2017-Sep-24 03:23N 46°46' W 092°00'0 0.0
2017-Sep-24 02:50N 46°46' W 092°00'0 0.1
2017-Sep-24 02:23N 46°46' W 092°00'0 0.3
2017-Sep-24 01:50N 46°46' W 092°00'0 0.2
2017-Sep-24 01:26N 46°46' W 092°00'0 0.1
2017-Sep-24 00:56N 46°46' W 092°00'0 0.0
2017-Sep-24 00:26N 46°46' W 092°00'0 0.1
2017-Sep-23 23:56N 46°46' W 092°00'0 0.3
2017-Sep-23 23:26N 46°46' W 092°00'2 3.7
2017-Sep-23 23:00N 46°48' W 092°00'230.4 350 / 71011.010.8 -3.3
2017-Sep-23 22:56N 46°46' W 092°00'0 0.2
2017-Sep-23 22:29N 46°46' W 092°00'0 0.3
2017-Sep-23 21:59N 46°47' W 092°00'0 0.0
2017-Sep-23 21:29N 46°47' W 092°00'0 0.1
2017-Sep-23 20:59N 46°47' W 092°00'0 0.3
2017-Sep-23 20:29N 46°47' W 092°00'2 3.1
2017-Sep-23 20:00N 46°48' W 092°00'2 6.3 220 / 31011.010.8 31.0
2017-Sep-23 19:44N 46°46' W 092°01'2 0.1
2017-Sep-23 08:00N 46°48' W 092°00'0 0.0 010 / 101006.010.8 18.0
2017-Sep-23 03:00N 46°48' W 092°00'0 0.0 050 / 151006.010.8 18.0
2017-Sep-22 23:00N 46°48' W 092°00'0 0.0 030 / 101009.010.8 22.0
2017-Sep-22 21:00N 46°48' W 092°00'14 1.1 060 / 121009.010.8 24.0
2017-Sep-22 09:00N 46°54' W 091°42'2121.3 030 / 161010.010.8 16.0
2017-Sep-22 08:00N 47°00' W 091°12'6412.8 030 / 121010.010.8 16.0
2017-Sep-22 03:00N 47°18' W 089°42'4514.9 120 / 181012.010.8 16.0
2017-Sep-22 00:00N 47°18' W 088°36'3812.8 080 / 161014.010.8 16.0
2017-Sep-21 21:00N 47°30' W 087°42'14412.7 030 / 91015.010.8 14.0
2017-Sep-21 09:39N 46°27' W 084°32'13 3.9
2017-Sep-21 06:18N 46°23' W 084°14'310.1
2017-Sep-21 06:00N 46°21' W 084°11'6 7.1
2017-Sep-21 05:07N 46°15' W 084°06'3 7.2
2017-Sep-21 04:44N 46°13' W 084°07'2 9.5
2017-Sep-21 04:30N 46°11' W 084°06'810.9
2017-Sep-21 03:43N 46°04' W 083°59'412.5
2017-Sep-21 03:24N 46°02' W 083°54'411.3
2017-Sep-21 03:00N 45°58' W 083°54'713.1
2017-Sep-21 02:30N 45°52' W 083°49'713.6
2017-Sep-21 02:00N 45°46' W 083°43'713.3
2017-Sep-21 01:31N 45°41' W 083°38'713.4
2017-Sep-21 01:00N 45°35' W 083°33'713.6
2017-Sep-21 00:30N 45°30' W 083°27'2113.6
2017-Sep-20 23:00N 45°12' W 083°12'4515.1 140 / 141013.0 0.0 19.0
2017-Sep-20 20:00N 44°30' W 082°48'10312.9 140 / 81013.0 0.0 21.0
2017-Sep-20 12:00N 42°48' W 082°30'21 5.3 120 / 11013.0 19.0
2017-Sep-20 08:00N 42°36' W 082°54'44 5.5 080 / 41013.010.8 21.0
2017-Sep-20 00:00N 41°54' W 082°36'5914.8 080 / 111013.010.8 22.0
2017-Sep-19 20:00N 42°06' W 081°18'6711.1 020 / 81014.010.8 22.0
2017-Sep-19 14:00N 42°30' W 079°54'49 3.0 180 / 81015.010.8 23.0
2017-Sep-18 22:00N 43°18' W 079°42'49 1.4 050 / 81015.010.8 27.0
2017-Sep-17 12:00N 42°30' W 079°54'5213.0 090 / 61019.010.8 19.0
2017-Sep-17 08:00N 42°12' W 081°00'9411.8 070 / 61019.010.8 22.0
2017-Sep-17 00:00N 42°00' W 083°06'18 6.0 120 / 131020.010.8 26.0
2017-Sep-16 21:00N 42°18' W 083°06'10111.2 170 / 101020.010.8 26.0
2017-Sep-16 12:00N 43°54' W 082°24'5714.2 170 / 131007.010.8 19.0
2017-Sep-16 08:00N 44°48' W 082°48'3 3.5 170 / 121007.010.8 19.0
2017-Sep-16 07:06N 44°50' W 082°51'113.1
2017-Sep-16 07:00N 44°51' W 082°52'3213.9
2017-Sep-16 07:00N 44°54' W 082°54'6 8.9 180 / 141017.010.8 19.0
2017-Sep-16 06:18N 45°00' W 082°56'513.1
2017-Sep-16 05:57N 45°04' W 082°58'713.1
2017-Sep-16 05:24N 45°11' W 083°01'713.4
2017-Sep-16 04:53N 45°18' W 083°05'513.1
2017-Sep-16 04:29N 45°22' W 083°08'613.4
2017-Sep-16 04:00N 45°27' W 083°14'713.4
2017-Sep-16 03:30N 45°32' W 083°21'713.2
2017-Sep-16 03:00N 45°37' W 083°27'713.1
2017-Sep-16 02:30N 45°42' W 083°33'613.0
2017-Sep-16 02:00N 45°46' W 083°40'713.0
2017-Sep-16 01:29N 45°51' W 083°46'712.7
2017-Sep-16 00:57N 45°56' W 083°53'611.4
2017-Sep-16 00:23N 46°02' W 083°56'910.7
2017-Sep-15 23:32N 46°10' W 084°04'211.3
2017-Sep-15 23:23N 46°11' W 084°06'4 9.5
2017-Sep-15 22:56N 46°13' W 084°10'102 9.3
2017-Sep-15 12:00N 47°12' W 086°12'5413.6 210 / 131008.0 5.4 16.0
2017-Sep-15 08:00N 47°36' W 087°24'2110.6 140 / 41007.010.8 18.0
2017-Sep-15 06:00N 47°30' W 087°54'   060 / 61007.010.8 17.0

Dump ship's entire track history